createdAt,value
2023-05-06T00:02:06.268Z,11.15
2023-05-06T00:04:33.368Z,11.16
2023-05-06T00:06:59.961Z,11.16
2023-05-06T00:09:26.556Z,11.14
2023-05-06T00:11:53.000Z,11.08
2023-05-06T00:14:19.637Z,11.02
2023-05-06T00:16:46.043Z,11.06
2023-05-06T00:19:12.541Z,11.04
2023-05-06T00:21:39.114Z,11.00
2023-05-06T00:24:05.885Z,10.93
2023-05-06T00:26:32.442Z,11.03
2023-05-06T00:28:59.022Z,11.09
2023-05-06T00:31:25.531Z,11.15
2023-05-06T00:33:51.998Z,11.16
2023-05-06T00:36:18.686Z,11.17
2023-05-06T00:38:45.210Z,11.20
2023-05-06T00:41:11.559Z,11.25
2023-05-06T00:43:38.123Z,11.27
2023-05-06T00:46:05.461Z,11.23
2023-05-06T00:48:32.312Z,11.24
2023-05-06T00:50:58.887Z,11.26
2023-05-06T00:53:25.313Z,11.29
2023-05-06T00:55:51.918Z,11.29
2023-05-06T00:58:20.142Z,11.29
2023-05-06T01:00:46.936Z,11.32
2023-05-06T01:03:13.458Z,11.32
2023-05-06T01:06:01.731Z,11.26
2023-05-06T01:09:08.723Z,11.22
2023-05-06T01:11:45.852Z,11.26
2023-05-06T01:14:26.340Z,11.27
2023-05-06T01:16:55.096Z,11.22
2023-05-06T01:19:42.046Z,11.20
2023-05-06T01:22:10.494Z,11.17
2023-05-06T01:24:41.825Z,11.14
2023-05-06T01:27:09.409Z,11.08
2023-05-06T01:29:37.907Z,11.06
2023-05-06T01:32:19.232Z,11.01
2023-05-06T01:34:49.512Z,10.97
2023-05-06T01:37:34.653Z,10.93
2023-05-06T01:40:04.082Z,10.89
2023-05-06T01:42:32.375Z,10.85
2023-05-06T01:45:03.037Z,10.83
2023-05-06T01:47:30.246Z,10.80
2023-05-06T01:49:57.676Z,10.79
2023-05-06T01:52:26.006Z,10.76
2023-05-06T01:54:52.388Z,10.73
2023-05-06T01:57:18.880Z,10.68
2023-05-06T01:59:45.239Z,10.65
2023-05-06T02:02:11.668Z,10.63
2023-05-06T02:04:38.080Z,10.54
2023-05-06T02:07:04.908Z,10.46
2023-05-06T02:09:31.437Z,10.35
2023-05-06T02:11:57.881Z,10.23
2023-05-06T02:14:24.525Z,10.25
2023-05-06T02:16:51.217Z,10.26
2023-05-06T02:19:17.877Z,10.26
2023-05-06T02:21:44.274Z,10.24
2023-05-06T02:24:10.678Z,10.18
2023-05-06T02:26:37.196Z,10.13
2023-05-06T02:29:03.816Z,10.10
2023-05-06T02:31:30.795Z,10.07
2023-05-06T02:33:57.492Z,10.06
2023-05-06T02:36:24.092Z,10.02
2023-05-06T02:38:50.566Z,9.99
2023-05-06T02:41:17.140Z,9.96
2023-05-06T02:43:43.807Z,9.96
2023-05-06T02:46:10.508Z,9.96
2023-05-06T02:48:36.928Z,9.92
2023-05-06T02:51:03.488Z,9.88
2023-05-06T02:53:29.991Z,9.87
2023-05-06T02:55:56.505Z,9.89
2023-05-06T02:58:23.094Z,9.92
2023-05-06T03:00:49.649Z,9.90
2023-05-06T03:03:17.517Z,9.85
2023-05-06T03:05:44.001Z,9.83
2023-05-06T03:08:10.555Z,9.80
2023-05-06T03:10:36.964Z,9.80
2023-05-06T03:13:03.578Z,9.77
2023-05-06T03:15:30.295Z,9.74
2023-05-06T03:17:56.928Z,9.72
2023-05-06T03:20:23.478Z,9.69
2023-05-06T03:22:50.193Z,9.63
2023-05-06T03:25:16.610Z,9.58
2023-05-06T03:27:43.043Z,9.56
2023-05-06T03:30:10.387Z,9.53
2023-05-06T03:32:37.868Z,9.50
2023-05-06T03:35:04.787Z,9.47
2023-05-06T03:37:31.246Z,9.49
2023-05-06T03:39:57.605Z,9.44
2023-05-06T03:42:24.239Z,9.34
2023-05-06T03:44:50.670Z,9.21
2023-05-06T03:47:17.272Z,9.24
2023-05-06T03:49:43.653Z,9.20
2023-05-06T03:52:10.115Z,9.27
2023-05-06T03:54:36.833Z,9.23
2023-05-06T03:57:03.349Z,9.24
2023-05-06T03:59:29.925Z,9.26
2023-05-06T04:01:56.587Z,9.25
2023-05-06T04:04:23.248Z,9.19
2023-05-06T04:06:49.615Z,9.22
2023-05-06T04:09:16.098Z,9.31
2023-05-06T04:11:42.543Z,9.33
2023-05-06T04:14:08.962Z,9.30
2023-05-06T04:16:36.038Z,9.32
2023-05-06T04:19:06.250Z,9.32
2023-05-06T04:21:33.211Z,9.33
2023-05-06T04:23:59.635Z,9.37
2023-05-06T04:26:26.152Z,9.43
2023-05-06T04:28:52.661Z,9.45
2023-05-06T04:31:19.311Z,9.47
2023-05-06T04:33:45.873Z,9.53
2023-05-06T04:36:12.926Z,9.55
2023-05-06T04:38:39.332Z,9.59
2023-05-06T04:41:05.759Z,9.64
2023-05-06T04:43:32.951Z,9.66
2023-05-06T04:45:59.525Z,9.69
2023-05-06T04:48:26.305Z,9.71
2023-05-06T04:50:52.963Z,9.73
2023-05-06T04:53:19.396Z,9.81
2023-05-06T04:55:45.819Z,9.90
2023-05-06T04:58:12.263Z,10.00
2023-05-06T05:00:38.898Z,10.04
2023-05-06T05:03:05.606Z,10.12
2023-05-06T05:05:33.204Z,10.26
2023-05-06T05:07:59.911Z,10.42
2023-05-06T05:10:26.476Z,10.50
2023-05-06T05:12:52.946Z,10.62
2023-05-06T05:15:21.033Z,10.78
2023-05-06T05:17:47.913Z,10.88
2023-05-06T05:20:14.434Z,11.06
2023-05-06T05:22:41.238Z,11.24
2023-05-06T05:25:08.609Z,11.40
2023-05-06T05:27:35.363Z,11.52
2023-05-06T05:30:01.827Z,11.66
2023-05-06T05:32:28.359Z,11.88
2023-05-06T05:34:55.035Z,11.83
2023-05-06T05:37:21.530Z,11.75
2023-05-06T05:39:48.155Z,11.73
2023-05-06T05:42:14.608Z,11.71
2023-05-06T05:44:41.050Z,11.73
2023-05-06T05:47:07.482Z,11.76
2023-05-06T05:49:33.938Z,11.72
2023-05-06T05:52:00.439Z,11.78
2023-05-06T05:54:27.077Z,11.80
2023-05-06T05:56:53.671Z,11.84
2023-05-06T05:59:20.037Z,11.85
2023-05-06T06:01:46.457Z,11.95
2023-05-06T06:04:13.019Z,11.98
2023-05-06T06:06:39.501Z,12.01
2023-05-06T06:09:06.512Z,12.06
2023-05-06T06:11:33.213Z,12.13
2023-05-06T06:13:59.648Z,12.14
2023-05-06T06:16:26.129Z,12.17
2023-05-06T06:18:53.724Z,12.17
2023-05-06T06:21:20.341Z,12.19
2023-05-06T06:23:47.113Z,12.29
2023-05-06T06:26:13.556Z,12.40
2023-05-06T06:28:40.061Z,12.37
2023-05-06T06:31:06.551Z,12.44
2023-05-06T06:33:33.075Z,12.50
2023-05-06T06:35:59.754Z,12.54
2023-05-06T06:38:26.202Z,12.56
2023-05-06T06:40:52.778Z,12.57
2023-05-06T06:43:20.093Z,12.68
2023-05-06T06:45:50.008Z,12.75
2023-05-06T06:48:16.954Z,12.86
2023-05-06T06:50:43.748Z,12.90
2023-05-06T06:53:10.457Z,12.93
2023-05-06T06:55:36.844Z,13.01
2023-05-06T06:58:03.285Z,13.03
2023-05-06T07:00:29.709Z,13.05
2023-05-06T07:02:56.220Z,13.13
2023-05-06T07:05:22.957Z,13.25
2023-05-06T07:07:49.330Z,13.46
2023-05-06T07:10:15.910Z,13.66
2023-05-06T07:12:42.375Z,13.76
2023-05-06T07:15:09.436Z,14.14
2023-05-06T07:17:36.237Z,14.63
2023-05-06T07:20:02.836Z,15.02
2023-05-06T07:22:29.491Z,15.64
2023-05-06T07:24:55.980Z,16.17
2023-05-06T07:27:24.082Z,16.44
2023-05-06T07:29:50.890Z,16.30
2023-05-06T07:32:17.615Z,16.11
2023-05-06T07:34:44.217Z,15.96
2023-05-06T07:37:10.649Z,15.87
2023-05-06T07:39:37.128Z,15.88
2023-05-06T07:42:03.622Z,15.83
2023-05-06T07:44:29.974Z,16.14
2023-05-06T07:46:56.762Z,16.63
2023-05-06T07:49:24.110Z,17.12
2023-05-06T07:51:50.594Z,18.02
2023-05-06T07:54:17.082Z,19.38
2023-05-06T07:56:44.082Z,19.52
2023-05-06T07:59:10.608Z,19.16
2023-05-06T08:01:37.288Z,19.14
2023-05-06T08:04:04.109Z,18.79
2023-05-06T08:06:30.745Z,18.87
2023-05-06T08:08:57.510Z,18.82
2023-05-06T08:11:23.952Z,18.99
2023-05-06T08:13:50.549Z,19.17
2023-05-06T08:16:17.479Z,19.24
2023-05-06T08:18:43.903Z,19.44
2023-05-06T08:21:10.964Z,19.64
2023-05-06T08:23:37.800Z,19.68
2023-05-06T08:26:04.528Z,20.45
2023-05-06T08:28:31.513Z,21.08
2023-05-06T08:30:58.079Z,21.52
2023-05-06T08:33:24.453Z,21.47
2023-05-06T08:35:51.018Z,21.14
2023-05-06T08:38:17.418Z,20.76
2023-05-06T08:40:44.896Z,20.89
2023-05-06T08:43:13.566Z,21.07
2023-05-06T08:45:41.803Z,21.03
2023-05-06T08:48:09.222Z,21.17
2023-05-06T08:50:40.835Z,21.48
2023-05-06T08:53:07.549Z,21.38
2023-05-06T08:55:34.165Z,21.35
2023-05-06T08:58:01.133Z,21.30
2023-05-06T09:00:27.648Z,21.47
2023-05-06T09:02:54.323Z,21.40
2023-05-06T09:05:21.114Z,21.22
2023-05-06T09:07:47.747Z,20.90
2023-05-06T09:10:14.713Z,20.99
2023-05-06T09:12:41.508Z,21.04
2023-05-06T09:15:09.720Z,21.18
2023-05-06T09:17:36.795Z,21.58
2023-05-06T09:20:03.841Z,22.16
2023-05-06T09:22:31.333Z,22.53
2023-05-06T09:24:58.789Z,22.91
2023-05-06T09:27:31.274Z,23.12
2023-05-06T09:30:05.271Z,23.03
2023-05-06T09:32:32.424Z,22.85
2023-05-06T09:34:58.876Z,22.88
2023-05-06T09:37:28.256Z,22.99
2023-05-06T09:39:56.533Z,22.80
2023-05-06T09:42:27.837Z,23.11
2023-05-06T09:44:58.162Z,22.98
2023-05-06T09:47:31.165Z,22.78
2023-05-06T09:50:04.519Z,23.11
2023-05-06T09:52:31.684Z,23.12
2023-05-06T09:54:59.271Z,22.94
2023-05-06T09:57:26.022Z,23.00
2023-05-06T09:59:54.197Z,22.89
2023-05-06T10:02:23.604Z,22.66
2023-05-06T10:04:51.151Z,22.68
2023-05-06T10:07:23.476Z,22.76
2023-05-06T10:09:51.402Z,22.88
2023-05-06T10:12:20.117Z,23.02
2023-05-06T10:14:47.425Z,23.09
2023-05-06T10:17:14.334Z,23.17
2023-05-06T10:19:45.003Z,23.16
2023-05-06T10:22:30.402Z,23.50
2023-05-06T10:25:05.752Z,23.63
2023-05-06T10:27:41.129Z,23.24
2023-05-06T10:30:10.318Z,23.07
2023-05-06T10:32:41.921Z,23.27
2023-05-06T10:35:20.439Z,23.05
2023-05-06T10:37:49.074Z,22.84
2023-05-06T10:40:15.846Z,23.28
2023-05-06T10:42:42.343Z,23.52
2023-05-06T10:45:19.544Z,23.65
2023-05-06T10:47:58.567Z,23.70
2023-05-06T10:50:39.171Z,23.67
2023-05-06T10:53:11.831Z,23.60
2023-05-06T10:55:38.436Z,23.42
2023-05-06T10:58:19.006Z,23.64
2023-05-06T11:00:55.565Z,23.77
2023-05-06T11:03:23.840Z,23.87
2023-05-06T11:05:52.090Z,24.14
2023-05-06T11:08:23.608Z,23.71
2023-05-06T11:10:50.131Z,23.11
2023-05-06T11:13:27.547Z,23.10
2023-05-06T11:15:58.291Z,23.08
2023-05-06T11:18:24.675Z,23.31
2023-05-06T11:21:12.586Z,23.28
2023-05-06T11:23:42.149Z,23.60
2023-05-06T11:26:09.509Z,23.55
2023-05-06T11:28:36.250Z,23.72
2023-05-06T11:31:03.182Z,23.60
2023-05-06T11:33:34.143Z,23.18
2023-05-06T11:36:01.622Z,23.00
2023-05-06T11:38:49.610Z,23.05
2023-05-06T11:41:17.240Z,23.05
2023-05-06T11:43:53.672Z,22.91
2023-05-06T11:46:21.961Z,23.04
2023-05-06T11:48:48.815Z,23.06
2023-05-06T11:51:16.270Z,23.23
2023-05-06T11:53:42.879Z,23.38
2023-05-06T11:56:09.321Z,23.81
2023-05-06T11:58:36.213Z,24.02
2023-05-06T12:01:04.445Z,24.23
2023-05-06T12:03:32.803Z,23.93
2023-05-06T12:06:00.204Z,23.82
2023-05-06T12:08:34.965Z,23.88
2023-05-06T12:11:03.760Z,23.97
2023-05-06T12:13:30.855Z,23.26
2023-05-06T12:16:01.540Z,22.79
2023-05-06T12:18:28.809Z,22.85
2023-05-06T12:21:00.581Z,22.81
2023-05-06T12:23:27.220Z,22.99
2023-05-06T12:26:02.631Z,23.06
2023-05-06T12:28:30.886Z,23.45
2023-05-06T12:30:57.380Z,23.66
2023-05-06T12:33:23.815Z,23.50
2023-05-06T12:35:51.630Z,23.34
2023-05-06T12:38:18.307Z,23.41
2023-05-06T12:40:52.685Z,23.20
2023-05-06T12:43:19.212Z,23.08
2023-05-06T12:46:05.910Z,23.21
2023-05-06T12:48:32.507Z,23.33
2023-05-06T12:50:58.988Z,23.54
2023-05-06T12:53:34.136Z,23.60
2023-05-06T12:56:00.936Z,23.72
2023-05-06T12:58:27.411Z,23.45
2023-05-06T13:00:53.973Z,23.53
2023-05-06T13:03:21.275Z,23.30
2023-05-06T13:05:50.108Z,23.19
2023-05-06T13:08:16.639Z,23.38
2023-05-06T13:10:43.241Z,23.64
2023-05-06T13:13:09.675Z,23.72
2023-05-06T13:15:36.378Z,23.83
2023-05-06T13:18:03.315Z,23.65
2023-05-06T13:20:30.443Z,23.39
2023-05-06T13:22:56.905Z,23.37
2023-05-06T13:25:23.409Z,23.42
2023-05-06T13:27:49.947Z,23.71
2023-05-06T13:30:17.030Z,23.90
2023-05-06T13:32:43.600Z,23.87
2023-05-06T13:35:10.467Z,23.71
2023-05-06T13:37:37.101Z,23.88
2023-05-06T13:40:04.862Z,24.23
2023-05-06T13:42:31.258Z,24.13
2023-05-06T13:44:57.671Z,24.26
2023-05-06T13:47:24.305Z,24.33
2023-05-06T13:49:51.176Z,24.40
2023-05-06T13:52:17.648Z,24.11
2023-05-06T13:54:44.920Z,23.86
2023-05-06T13:57:11.507Z,23.80
2023-05-06T13:59:37.897Z,23.59
2023-05-06T14:02:08.212Z,23.37
2023-05-06T14:04:36.184Z,23.41
2023-05-06T14:07:02.700Z,23.68
2023-05-06T14:09:29.218Z,24.10
2023-05-06T14:11:55.777Z,23.98
2023-05-06T14:14:22.184Z,24.05
2023-05-06T14:16:48.634Z,24.40
2023-05-06T14:19:15.125Z,24.55
2023-05-06T14:21:41.573Z,24.30
2023-05-06T14:24:08.368Z,24.23
2023-05-06T14:26:34.825Z,23.96
2023-05-06T14:29:01.375Z,23.70
2023-05-06T14:31:29.522Z,23.68
2023-05-06T14:33:56.630Z,23.57
2023-05-06T14:36:29.572Z,23.55
2023-05-06T14:38:56.168Z,23.81
2023-05-06T14:41:22.798Z,24.17
2023-05-06T14:43:49.326Z,24.37
2023-05-06T14:46:16.328Z,24.07
2023-05-06T14:48:43.429Z,23.87
2023-05-06T14:51:10.077Z,23.70
2023-05-06T14:53:36.612Z,23.35
2023-05-06T14:56:03.247Z,23.18
2023-05-06T14:58:29.830Z,23.20
2023-05-06T15:00:57.110Z,23.28
2023-05-06T15:03:23.648Z,23.32
2023-05-06T15:05:51.068Z,23.25
2023-05-06T15:08:17.658Z,23.02
2023-05-06T15:10:44.416Z,23.11
2023-05-06T15:13:11.005Z,23.11
2023-05-06T15:15:37.565Z,23.11
2023-05-06T15:18:13.605Z,22.95
2023-05-06T15:20:40.077Z,22.96
2023-05-06T15:23:06.570Z,22.94
2023-05-06T15:25:36.025Z,22.73
2023-05-06T15:28:04.602Z,22.69
2023-05-06T15:30:31.078Z,22.56
2023-05-06T15:32:57.484Z,22.59
2023-05-06T15:35:24.049Z,22.67
2023-05-06T15:37:55.845Z,22.69
2023-05-06T15:40:25.518Z,22.63
2023-05-06T15:42:52.473Z,22.70
2023-05-06T15:45:19.802Z,22.74
2023-05-06T15:47:48.056Z,22.62
2023-05-06T15:50:25.199Z,22.58
2023-05-06T15:52:58.777Z,22.57
2023-05-06T15:55:26.608Z,22.68
2023-05-06T15:57:54.567Z,22.65
2023-05-06T16:00:21.951Z,22.68
2023-05-06T16:02:48.687Z,22.69
2023-05-06T16:05:15.790Z,22.69
2023-05-06T16:07:42.457Z,22.62
2023-05-06T16:10:08.921Z,22.48
2023-05-06T16:12:35.631Z,22.38
2023-05-06T16:15:03.357Z,22.35
2023-05-06T16:17:30.402Z,22.40
2023-05-06T16:19:56.934Z,22.47
2023-05-06T16:22:23.406Z,22.53
2023-05-06T16:24:49.827Z,22.36
2023-05-06T16:27:16.427Z,22.36
2023-05-06T16:29:43.037Z,22.29
2023-05-06T16:32:09.554Z,22.32
2023-05-06T16:34:38.964Z,22.13
2023-05-06T16:37:07.911Z,22.05
2023-05-06T16:39:34.440Z,22.02
2023-05-06T16:42:01.842Z,21.96
2023-05-06T16:44:29.311Z,21.87
2023-05-06T16:46:56.083Z,21.82
2023-05-06T16:49:22.566Z,21.79
2023-05-06T16:51:49.108Z,21.74
2023-05-06T16:54:15.657Z,21.68
2023-05-06T16:59:22.754Z,21.50
2023-05-06T17:01:50.396Z,21.37
2023-05-06T17:04:20.479Z,21.31
2023-05-06T17:06:46.986Z,21.26
2023-05-06T17:09:13.472Z,21.21
2023-05-06T17:11:39.845Z,21.22
2023-05-06T17:14:06.520Z,21.22
2023-05-06T17:16:33.045Z,21.18
2023-05-06T17:18:59.560Z,21.16
2023-05-06T17:21:26.849Z,21.16
2023-05-06T17:23:54.477Z,21.08
2023-05-06T17:26:21.693Z,21.01
2023-05-06T17:28:48.316Z,21.02
2023-05-06T17:31:15.689Z,20.97
2023-05-06T17:33:42.444Z,20.94
2023-05-06T17:36:09.148Z,20.90
2023-05-06T17:38:35.825Z,20.83
2023-05-06T17:41:02.211Z,20.74
2023-05-06T17:43:28.878Z,20.69
2023-05-06T17:45:56.123Z,20.58
2023-05-06T17:48:23.004Z,20.28
2023-05-06T17:50:49.414Z,19.95
2023-05-06T17:53:16.101Z,19.71
2023-05-06T17:55:42.829Z,19.46
2023-05-06T17:58:09.290Z,19.12
2023-05-06T18:00:36.853Z,18.79
2023-05-06T18:03:03.379Z,18.61
2023-05-06T18:05:30.137Z,18.47
2023-05-06T18:07:56.700Z,18.29
2023-05-06T18:10:23.144Z,18.13
2023-05-06T18:12:49.960Z,17.92
2023-05-06T18:15:16.757Z,17.88
2023-05-06T18:17:43.337Z,17.74
2023-05-06T18:20:10.317Z,17.77
2023-05-06T18:22:37.152Z,17.76
2023-05-06T18:25:04.380Z,17.69
2023-05-06T18:27:32.302Z,17.61
2023-05-06T18:29:59.537Z,17.53
2023-05-06T18:32:26.108Z,17.50
2023-05-06T18:34:52.649Z,17.51
2023-05-06T18:37:19.083Z,17.44
2023-05-06T18:39:45.840Z,17.38
2023-05-06T18:42:12.221Z,17.36
2023-05-06T18:44:38.648Z,17.25
2023-05-06T18:47:05.811Z,17.26
2023-05-06T18:49:32.255Z,17.22
2023-05-06T18:51:58.855Z,17.17
2023-05-06T18:54:25.353Z,17.07
2023-05-06T18:56:51.897Z,17.04
2023-05-06T18:59:21.736Z,17.02
2023-05-06T19:01:48.458Z,17.02
2023-05-06T19:04:15.149Z,16.97
2023-05-06T19:06:41.792Z,16.95
2023-05-06T19:09:08.335Z,16.96
2023-05-06T19:11:35.043Z,16.97
2023-05-06T19:14:01.568Z,16.95
2023-05-06T19:16:28.050Z,16.93
2023-05-06T19:18:54.494Z,16.86
2023-05-06T19:21:21.694Z,16.73
2023-05-06T19:23:48.219Z,16.74
2023-05-06T19:26:14.815Z,16.78
2023-05-06T19:28:41.369Z,16.81
2023-05-06T19:31:11.886Z,16.78
2023-05-06T19:33:39.221Z,16.87
2023-05-06T19:36:06.403Z,16.90
2023-05-06T19:38:33.031Z,16.84
2023-05-06T19:40:59.526Z,16.77
2023-05-06T19:43:26.001Z,16.74
2023-05-06T19:45:52.611Z,16.72
2023-05-06T19:48:19.707Z,16.72
2023-05-06T19:50:46.328Z,16.76
2023-05-06T19:53:12.811Z,16.73
2023-05-06T19:55:39.245Z,16.70
2023-05-06T19:58:05.980Z,16.69
2023-05-06T20:00:32.521Z,16.67
2023-05-06T20:03:00.207Z,16.64
2023-05-06T20:05:32.023Z,16.63
2023-05-06T20:07:59.966Z,16.61
2023-05-06T20:10:28.021Z,16.57
2023-05-06T20:12:57.335Z,16.56
2023-05-06T20:15:24.484Z,16.54
2023-05-06T20:17:50.928Z,16.52
2023-05-06T20:20:17.678Z,16.48
2023-05-06T20:22:44.138Z,16.48
2023-05-06T20:25:13.028Z,16.49
2023-05-06T20:27:39.787Z,16.49
2023-05-06T20:30:08.268Z,16.47
2023-05-06T20:32:35.460Z,16.46
2023-05-06T20:35:01.982Z,16.47
2023-05-06T20:37:29.403Z,16.48
2023-05-06T20:39:56.177Z,16.48
2023-05-06T20:42:22.781Z,16.39
2023-05-06T20:44:51.030Z,16.36
2023-05-06T20:47:18.287Z,16.37
2023-05-06T20:49:44.873Z,16.35
2023-05-06T20:52:14.509Z,16.35
2023-05-06T20:54:45.259Z,16.34
2023-05-06T20:57:14.080Z,16.30
2023-05-06T20:59:40.800Z,16.28
2023-05-06T21:02:07.274Z,16.15
2023-05-06T21:04:33.872Z,16.13
2023-05-06T21:07:00.620Z,16.07
2023-05-06T21:09:29.148Z,15.99
2023-05-06T21:11:56.355Z,15.96
2023-05-06T21:14:24.746Z,15.98
2023-05-06T21:16:52.414Z,15.97
2023-05-06T21:19:19.693Z,15.98
2023-05-06T21:21:46.178Z,15.97
2023-05-06T21:24:13.124Z,15.98
2023-05-06T21:26:40.099Z,15.97
2023-05-06T21:29:06.694Z,16.01
2023-05-06T21:31:33.158Z,16.03
2023-05-06T21:33:59.867Z,16.02
2023-05-06T21:36:27.131Z,16.00
2023-05-06T21:39:05.593Z,16.01
2023-05-06T21:41:31.955Z,16.03
2023-05-06T21:43:58.456Z,15.96
2023-05-06T21:46:25.057Z,15.87
2023-05-06T21:48:52.003Z,15.79
2023-05-06T21:51:18.388Z,15.70
2023-05-06T21:53:49.194Z,15.63
2023-05-06T21:56:16.319Z,15.58
2023-05-06T21:58:42.798Z,15.59
2023-05-06T22:01:09.447Z,15.49
2023-05-06T22:03:36.113Z,15.41
2023-05-06T22:06:05.982Z,15.38
2023-05-06T22:08:32.494Z,15.31
2023-05-06T22:10:58.936Z,15.26
2023-05-06T22:13:26.713Z,15.20
2023-05-06T22:15:53.864Z,15.14
2023-05-06T22:18:20.441Z,15.14
2023-05-06T22:20:49.269Z,15.08
2023-05-06T22:23:15.760Z,15.04
2023-05-06T22:25:42.135Z,15.09
2023-05-06T22:28:08.522Z,15.08
2023-05-06T22:30:35.066Z,15.13
2023-05-06T22:33:01.760Z,15.14
2023-05-06T22:35:28.393Z,15.14
2023-05-06T22:37:54.760Z,15.19
2023-05-06T22:40:21.316Z,15.19
2023-05-06T22:42:48.356Z,15.23
2023-05-06T22:45:14.773Z,15.30
2023-05-06T22:47:41.260Z,15.30
2023-05-06T22:50:08.111Z,15.29
2023-05-06T22:52:34.688Z,15.32
2023-05-06T22:55:01.161Z,15.33
2023-05-06T22:57:27.658Z,15.29
2023-05-06T22:59:54.287Z,15.24
2023-05-06T23:02:20.816Z,15.16
2023-05-06T23:04:47.302Z,15.10
2023-05-06T23:07:14.198Z,15.10
2023-05-06T23:09:40.806Z,15.09
2023-05-06T23:12:07.772Z,15.10
2023-05-06T23:14:34.299Z,15.10
2023-05-06T23:17:00.730Z,15.02
2023-05-06T23:19:27.227Z,14.98
2023-05-06T23:21:53.768Z,14.92
2023-05-06T23:24:20.169Z,14.84
2023-05-06T23:26:46.608Z,14.83
2023-05-06T23:29:13.130Z,14.84
2023-05-06T23:31:39.721Z,14.81
2023-05-06T23:34:06.446Z,14.77
2023-05-06T23:36:34.037Z,14.75
2023-05-06T23:39:00.764Z,14.69
2023-05-06T23:41:27.659Z,14.66
2023-05-06T23:43:54.231Z,14.70
2023-05-06T23:46:20.878Z,14.69
2023-05-06T23:48:47.353Z,14.66
2023-05-06T23:51:13.783Z,14.68
2023-05-06T23:53:40.850Z,14.71
2023-05-06T23:56:07.491Z,14.70
2023-05-06T23:58:34.044Z,14.67
